Time;durP1;ratioP1;P1;durP2;ratioP2;P2;SDS_P1;SDS_P2;PMS_P1;PMS_P2;Temp;Humidity;BMP_temperature;BMP_pressure;BME280_temperature;BME280_humidity;BME280_pressure;Samples;Min_cycle;Max_cycle;Signal;HPM_P1;HPM_P2
2022/07/03 00:00:33;;;;;;;5.90;4.40;;;;;;;9.52;74.81;100427.63;1660465;85;21111;-61
2022/07/03 00:03:02;;;;;;;8.70;5.45;;;;;;;9.50;74.93;100426.81;1656506;85;21115;-61
2022/07/03 00:05:29;;;;;;;11.97;5.92;;;;;;;9.49;74.99;100428.99;1657146;85;21021;-60
2022/07/03 00:07:55;;;;;;;8.95;4.30;;;;;;;9.48;75.18;100422.09;1658466;85;21828;-60
2022/07/03 00:10:22;;;;;;;5.65;4.17;;;;;;;9.48;75.33;100429.06;1660157;85;21159;-61
2022/07/03 00:12:49;;;;;;;7.08;5.55;;;;;;;9.47;75.45;100423.00;1670938;84;20934;-60
2022/07/03 00:15:16;;;;;;;6.50;3.70;;;;;;;9.46;75.55;100417.82;1669077;84;21091;-61
2022/07/03 00:17:42;;;;;;;6.62;3.90;;;;;;;9.50;75.43;100422.90;1671946;84;21091;-60
2022/07/03 00:20:10;;;;;;;6.23;4.27;;;;;;;9.47;75.48;100420.39;1677316;83;21414;-60
2022/07/03 00:22:42;;;;;;;6.05;4.30;;;;;;;9.42;75.55;100419.68;1669300;83;21178;-60
2022/07/03 00:25:12;;;;;;;6.17;4.53;;;;;;;9.39;75.77;100414.56;1682464;83;21989;-60
2022/07/03 00:27:40;;;;;;;9.50;4.08;;;;;;;9.36;75.69;100425.09;1685504;82;21084;-60
2022/07/03 00:30:10;;;;;;;;;;;;;;;9.35;75.73;100415.12;1691538;82;21147;-60
2022/07/03 00:32:39;;;;;;;10.28;6.17;;;;;;;9.38;76.00;100414.14;1685248;82;21981;-61
2022/07/03 00:35:08;;;;;;;8.13;4.72;;;;;;;9.42;76.10;100422.28;1662825;84;20981;-61
2022/07/03 00:37:34;;;;;;;5.67;4.12;;;;;;;9.40;75.84;100424.08;1687791;84;21047;-61
2022/07/03 00:40:03;;;;;;;6.97;4.95;;;;;;;9.34;75.86;100420.36;1681012;84;21041;-60
2022/07/03 00:42:32;;;;;;;12.05;6.65;;;;;;;9.30;76.00;100422.64;1654609;84;21641;-60
2022/07/03 00:45:00;;;;;;;9.60;5.20;;;;;;;9.33;76.42;100419.97;1695355;83;21618;-60
2022/07/03 00:47:28;;;;;;;9.43;4.75;;;;;;;9.40;76.59;100416.26;1693024;82;20974;-61
2022/07/03 00:49:57;;;;;;;7.17;5.17;;;;;;;9.46;76.61;100415.21;1690936;83;21259;-60
2022/07/03 00:52:24;;;;;;;7.33;5.30;;;;;;;9.49;76.73;100409.44;1671780;83;21166;-60
2022/07/03 00:54:55;;;;;;;9.30;5.28;;;;;;;9.52;76.81;100406.77;1660448;84;21119;-60
2022/07/03 00:57:25;;;;;;;7.67;5.10;;;;;;;9.50;76.90;100409.87;1678405;84;21167;-61
2022/07/03 00:59:52;;;;;;;10.05;5.62;;;;;;;9.52;76.89;100405.89;1667847;84;21037;-61
2022/07/03 01:02:40;;;;;;;;;;;;;;;9.51;76.91;100408.11;1700086;82;21108;-62
2022/07/03 01:05:39;;;;;;;7.10;4.40;;;;;;;9.49;77.04;100411.20;1659104;84;20170;-61
2022/07/03 01:08:31;;;;;;;10.05;5.03;;;;;;;9.42;76.92;100409.25;1652977;84;21004;-61
2022/07/03 01:11:24;;;;;;;8.75;4.33;;;;;;;9.35;76.95;100403.81;1686734;83;21452;-60
2022/07/03 01:14:16;;;;;;;6.62;3.87;;;;;;;9.23;76.88;100404.21;1695634;84;21072;-61
2022/07/03 01:17:00;;;;;;;11.45;5.58;;;;;;;9.18;77.05;100401.28;1703560;82;21532;-61
2022/07/03 01:19:44;;;;;;;11.45;8.10;;;;;;;9.14;77.17;100407.50;1681869;82;21035;-62
2022/07/03 01:22:36;;;;;;;5.87;4.40;;;;;;;9.08;77.63;100399.87;1674346;83;21111;-62
2022/07/03 01:25:17;;;;;;;8.60;6.12;;;;;;;9.07;77.45;100402.51;1675355;84;22052;-62
2022/07/03 01:28:05;;;;;;;10.50;6.08;;;;;;;8.98;77.67;100395.83;1656650;85;21080;-61
2022/07/03 01:30:33;;;;;;;;;;;;;;;8.94;77.73;100391.62;1657833;84;21160;-61
2022/07/03 01:33:08;;;;;;;6.00;5.10;;;;;;;8.92;77.94;100385.59;1672153;84;20531;-61
2022/07/03 01:35:42;;;;;;;8.20;5.62;;;;;;;8.87;77.88;100383.58;1649796;86;21598;-61
2022/07/03 01:38:12;;;;;;;7.62;5.50;;;;;;;8.85;78.00;100384.06;1638328;86;21172;-62
2022/07/03 01:40:42;;;;;;;11.25;6.17;;;;;;;8.85;78.13;100386.66;1652218;85;21111;-62
2022/07/03 01:43:12;;;;;;;10.23;4.95;;;;;;;8.85;78.25;100384.06;1650049;86;21735;-61
2022/07/03 01:45:48;;;;;;;10.23;6.40;;;;;;;8.86;78.47;100383.18;1652847;84;21426;-61
2022/07/03 01:48:15;;;;;;;7.03;4.87;;;;;;;8.87;78.42;100384.88;1652716;84;21592;-61
2022/07/03 01:50:43;;;;;;;;;;;;;;;8.85;78.50;100378.85;1652055;84;21092;-63
2022/07/03 01:53:12;;;;;;;9.93;5.30;;;;;;;8.84;78.61;100382.37;1650066;85;20190;-62
2022/07/03 01:55:41;;;;;;;5.33;3.95;;;;;;;8.81;78.55;100382.46;1649687;86;21036;-61
2022/07/03 01:58:10;;;;;;;9.13;5.72;;;;;;;8.78;78.59;100372.14;1638502;86;22363;-62
2022/07/03 02:00:47;;;;;;;8.90;5.65;;;;;;;8.78;78.78;100377.34;1635713;86;21038;-61
2022/07/03 02:03:19;;;;;;;6.12;4.33;;;;;;;8.76;78.79;100371.32;1660633;85;21873;-62
2022/07/03 02:05:47;;;;;;;7.37;5.03;;;;;;;8.74;78.85;100370.93;1656706;85;21104;-61
2022/07/03 02:08:20;;;;;;;;;;;;;;;8.73;78.89;100370.50;1661408;85;21641;-62
2022/07/03 02:11:14;;;;;;;7.20;5.10;;;;;;;8.73;79.17;100370.50;1637330;86;20279;-62
2022/07/03 02:13:58;;;;;;;11.75;5.33;;;;;;;8.74;79.10;100367.02;1665424;84;21104;-62
2022/07/03 02:16:26;;;;;;;8.70;4.40;;;;;;;8.76;79.07;100366.11;1649942;85;21144;-61
2022/07/03 02:19:05;;;;;;;6.78;4.62;;;;;;;8.78;79.28;100372.98;1658765;85;21111;-61
2022/07/03 02:21:33;;;;;;;8.80;5.20;;;;;;;8.80;79.35;100365.14;1660471;84;21262;-61
2022/07/03 02:24:25;;;;;;;8.43;4.28;;;;;;;8.81;79.42;100369.44;1669842;85;21582;-61
2022/07/03 02:27:00;;;;;;;8.33;4.62;;;;;;;8.82;79.50;100369.41;1660233;85;21471;-62
2022/07/03 02:29:34;;;;;;;9.28;5.47;;;;;;;8.86;79.63;100363.20;1658261;84;22335;-62
2022/07/03 02:32:04;;;;;;;6.62;4.60;;;;;;;8.93;80.04;100358.64;1665217;84;21121;-62
2022/07/03 02:34:33;;;;;;;11.00;5.12;;;;;;;9.07;80.23;100364.28;1669571;85;20942;-62
2022/07/03 02:37:19;;;;;;;5.70;3.85;;;;;;;9.17;80.31;100363.11;1679626;84;21605;-60
2022/07/03 02:39:52;;;;;;;8.58;5.55;;;;;;;9.37;81.09;100361.63;1649986;85;21647;-61
2022/07/03 02:42:46;;;;;;;5.42;4.60;;;;;;;9.60;81.26;100359.11;1682915;84;21169;-62
2022/07/03 02:45:12;;;;;;;9.40;4.65;;;;;;;9.69;80.68;100357.10;1682966;83;21658;-61
2022/07/03 02:48:09;;;;;;;10.90;4.03;;;;;;;9.70;80.31;100358.83;1680691;84;21221;-61
2022/07/03 02:50:37;;;;;;;7.67;4.30;;;;;;;10.27;81.31;100360.34;1683161;83;21527;-61
2022/07/03 02:53:08;;;;;;;4.70;3.55;;;;;;;11.54;81.04;100357.20;1675414;83;21071;-62
2022/07/03 02:55:46;;;;;;;7.50;3.95;;;;;;;12.63;80.40;100350.78;1684520;84;21078;-61
2022/07/03 02:59:01;;;;;;;6.53;3.52;;;;;;;13.71;79.94;100350.91;1678347;83;21052;-61
2022/07/03 03:01:45;;;;;;;9.10;3.70;;;;;;;15.00;80.15;100345.80;1685165;84;21064;-61
2022/07/03 03:04:22;;;;;;;6.97;4.05;;;;;;;16.48;79.42;100337.19;1682172;83;21132;-62
2022/07/03 03:07:06;;;;;;;6.22;3.50;;;;;;;17.54;78.00;100340.52;1683449;84;21068;-62
2022/07/03 03:09:38;;;;;;;5.53;3.22;;;;;;;18.32;77.40;100334.38;1680765;84;21164;-62
2022/07/03 03:12:08;;;;;;;7.97;3.40;;;;;;;19.29;77.38;100328.30;1678204;84;21030;-62
2022/07/03 03:14:54;;;;;;;5.78;3.40;;;;;;;20.21;77.17;100318.69;1682833;84;21154;-62
2022/07/03 03:17:24;;;;;;;5.35;3.40;;;;;;;20.86;76.12;100316.25;1683820;84;21068;-62
2022/07/03 03:19:54;;;;;;;8.80;3.80;;;;;;;21.40;75.44;100319.39;1683419;84;20949;-62
2022/07/03 03:22:33;;;;;;;6.95;3.65;;;;;;;21.80;74.56;100312.05;1670783;84;21549;-62
2022/07/03 03:25:03;;;;;;;7.05;3.30;;;;;;;22.12;73.14;100310.60;1686118;82;21063;-63
2022/07/03 03:27:30;;;;;;;6.90;3.20;;;;;;;22.28;71.76;100316.31;1664073;84;21026;-62
2022/07/03 03:29:57;;;;;;;5.78;3.47;;;;;;;22.24;70.77;100311.41;1661197;84;20995;-62
2022/07/03 03:32:26;;;;;;;4.35;2.80;;;;;;;22.15;70.57;100314.81;1661628;84;21619;-62
2022/07/03 03:34:53;;;;;;;4.25;2.83;;;;;;;22.30;71.03;100312.20;1687466;82;21395;-62
2022/07/03 03:37:19;;;;;;;;;;;;;;;22.85;71.12;100316.62;1662159;85;21112;-62
2022/07/03 03:39:47;;;;;;;;;;;;;;;23.52;70.38;100304.86;1667605;85;20183;-63
2022/07/03 03:42:13;;;;;;;3.77;2.67;;;;;;;24.12;69.74;100296.14;1682252;83;20223;-62
2022/07/03 03:44:40;;;;;;;3.95;2.72;;;;;;;24.73;69.83;100291.59;1682839;82;21105;-62
2022/07/03 03:47:08;;;;;;;5.95;2.30;;;;;;;25.41;69.97;100294.27;1682366;82;21827;-63
2022/07/03 03:49:34;;;;;;;3.70;2.20;;;;;;;26.21;69.13;100295.48;1694667;82;21064;-63
2022/07/03 03:52:02;;;;;;;3.62;2.30;;;;;;;26.52;68.01;100297.16;1691874;83;21005;-63
2022/07/03 03:54:29;;;;;;;3.72;2.25;;;;;;;26.72;67.17;100293.70;1685435;82;21584;-63
2022/07/03 03:56:56;;;;;;;2.90;1.82;;;;;;;27.05;66.54;100289.76;1656977;84;21144;-63
2022/07/03 03:59:23;;;;;;;6.00;2.27;;;;;;;27.12;65.54;100294.80;1654563;84;22372;-63
2022/07/03 04:01:49;;;;;;;3.50;2.20;;;;;;;27.31;65.32;100290.50;1684470;83;20955;-64
2022/07/03 04:04:18;;;;;;;4.30;2.08;;;;;;;27.55;64.87;100288.80;1686145;83;20920;-64
2022/07/03 04:06:45;;;;;;;4.62;1.90;;;;;;;28.17;64.50;100286.35;1683195;83;21039;-64
2022/07/03 04:09:12;;;;;;;3.37;1.92;;;;;;;28.70;63.28;100283.97;1686522;84;21086;-64
2022/07/03 04:11:38;;;;;;;4.65;2.08;;;;;;;29.06;62.97;100286.97;1687194;83;21129;-63
2022/07/03 04:14:05;;;;;;;2.30;1.60;;;;;;;29.22;61.77;100281.47;1669180;85;21084;-64
2022/07/03 04:16:34;;;;;;;3.70;1.77;;;;;;;29.15;60.81;100281.84;1677113;84;22473;-63
2022/07/03 04:19:01;;;;;;;3.02;1.75;;;;;;;29.27;60.66;100281.42;1672266;85;20980;-63
2022/07/03 04:21:28;;;;;;;5.55;2.22;;;;;;;29.50;60.24;100280.07;1678631;83;21099;-64
2022/07/03 04:23:55;;;;;;;5.05;2.12;;;;;;;29.83;59.89;100286.84;1682713;83;21213;-64
2022/07/03 04:26:22;;;;;;;5.05;2.05;;;;;;;29.91;58.94;100277.81;1685473;83;21098;-64
2022/07/03 04:28:48;;;;;;;5.70;2.10;;;;;;;30.02;58.20;100280.05;1675592;83;21058;-64
2022/07/03 04:31:15;;;;;;;3.95;1.87;;;;;;;30.01;57.34;100278.39;1679678;83;21106;-64
2022/07/03 04:33:42;;;;;;;7.00;2.12;;;;;;;29.90;56.64;100272.13;1681258;83;21064;-64
2022/07/03 04:36:09;;;;;;;6.65;2.00;;;;;;;30.00;56.45;100260.58;1678588;83;22257;-64
2022/07/03 04:38:35;;;;;;;7.17;1.92;;;;;;;30.39;55.83;100272.93;1680286;83;21082;-64
2022/07/03 04:41:02;;;;;;;3.72;1.82;;;;;;;30.54;55.14;100268.34;1660602;84;22170;-64
2022/07/03 04:43:29;;;;;;;5.62;1.67;;;;;;;30.83;54.66;100274.69;1691897;83;21086;-64
2022/07/03 04:45:55;;;;;;;2.92;1.50;;;;;;;31.21;54.19;100274.45;1689700;83;21014;-64
2022/07/03 04:48:22;;;;;;;4.28;1.70;;;;;;;31.57;53.84;100269.50;1688185;83;21943;-64
2022/07/03 04:50:49;;;;;;;4.33;2.02;;;;;;;31.91;53.39;100273.25;1682859;83;21059;-64
2022/07/03 04:53:15;;;;;;;4.22;1.98;;;;;;;32.26;53.10;100269.50;1683395;83;21150;-64
2022/07/03 04:55:42;;;;;;;7.72;2.30;;;;;;;32.46;52.14;100274.19;1683896;83;21984;-64
2022/07/03 04:58:09;;;;;;;3.58;1.80;;;;;;;32.63;51.90;100270.12;1685143;83;21031;-65
2022/07/03 05:00:35;;;;;;;5.97;1.82;;;;;;;33.04;51.42;100274.59;1684171;83;21413;-63
2022/07/03 05:03:02;;;;;;;7.55;2.20;;;;;;;33.10;50.83;100277.81;1685557;83;21093;-65
2022/07/03 05:05:29;;;;;;;3.55;1.80;;;;;;;33.32;50.73;100270.87;1680968;83;21673;-64
2022/07/03 05:07:56;;;;;;;2.40;1.50;;;;;;;33.45;49.71;100264.11;1686774;83;20976;-64
2022/07/03 05:10:23;;;;;;;3.15;1.80;;;;;;;33.53;49.18;100266.63;1678293;83;21196;-64
2022/07/03 05:12:50;;;;;;;3.77;2.00;;;;;;;33.70;48.58;100271.62;1679234;83;21590;-64
2022/07/03 05:15:17;;;;;;;5.15;2.08;;;;;;;33.74;48.18;100267.43;1681414;83;21098;-65
2022/07/03 05:17:44;;;;;;;5.42;1.98;;;;;;;33.46;47.65;100264.94;1677643;83;21020;-64
2022/07/03 05:20:24;;;;;;;4.42;1.95;;;;;;;33.45;47.05;100267.34;1683343;83;21066;-65
2022/07/03 05:22:57;;;;;;;4.90;1.90;;;;;;;33.36;46.44;100274.31;1672902;83;21038;-64
2022/07/03 05:25:24;;;;;;;2.58;1.30;;;;;;;33.43;46.08;100277.01;1633150;86;21761;-64
2022/07/03 05:27:56;;;;;;;4.15;1.47;;;;;;;33.30;45.56;100270.23;1675557;84;21064;-64
2022/07/03 05:30:23;;;;;;;4.22;1.70;;;;;;;33.21;45.30;100269.08;1635787;86;21090;-63
2022/07/03 05:32:51;;;;;;;2.55;1.40;;;;;;;33.25;45.12;100264.64;1656209;85;21005;-64
2022/07/03 05:35:18;;;;;;;2.47;1.60;;;;;;;33.32;44.87;100266.81;1654274;85;20990;-64
2022/07/03 05:37:45;;;;;;;4.72;1.65;;;;;;;33.35;44.58;100266.39;1657828;85;21950;-64
2022/07/03 05:40:12;;;;;;;4.70;1.52;;;;;;;33.48;44.34;100263.69;1660412;85;21064;-64
2022/07/03 05:42:39;;;;;;;5.25;1.30;;;;;;;33.65;43.62;100263.59;1656596;85;21000;-64
2022/07/03 05:45:07;;;;;;;2.58;1.17;;;;;;;33.56;43.34;100266.21;1657146;85;21053;-65
2022/07/03 05:47:34;;;;;;;1.50;1.10;;;;;;;33.56;43.21;100263.50;1658191;85;21107;-64
2022/07/03 05:50:01;;;;;;;2.05;1.10;;;;;;;33.52;42.73;100267.66;1661774;85;21096;-63
2022/07/03 05:52:28;;;;;;;3.25;1.07;;;;;;;33.42;42.60;100267.23;1669706;84;21600;-62
2022/07/03 05:54:54;;;;;;;3.55;1.40;;;;;;;33.50;42.20;100258.91;1646399;86;21591;-62
2022/07/03 05:57:21;;;;;;;3.67;1.40;;;;;;;33.62;42.50;100260.48;1660599;85;21017;-64
2022/07/03 05:59:48;;;;;;;3.72;1.62;;;;;;;33.87;41.89;100261.99;1662068;85;21329;-63
2022/07/03 06:02:14;;;;;;;3.77;1.60;;;;;;;33.79;41.18;100263.05;1659062;85;21066;-61
2022/07/03 06:04:41;;;;;;;12.82;6.55;;;;;;;33.52;41.12;100258.67;1658038;85;21053;-63
2022/07/03 06:07:08;;;;;;;3.20;2.20;;;;;;;33.21;40.71;100266.38;1657997;85;21040;-61
2022/07/03 06:09:35;;;;;;;5.53;1.60;;;;;;;32.89;40.46;100267.16;1661905;84;21103;-62
2022/07/03 06:12:01;;;;;;;2.22;1.17;;;;;;;32.59;40.54;100264.78;1646104;86;21033;-63
2022/07/03 06:14:28;;;;;;;2.70;1.20;;;;;;;32.52;40.26;100262.59;1644860;86;21125;-63
2022/07/03 06:16:55;;;;;;;2.65;0.90;;;;;;;32.56;40.18;100262.49;1643999;85;21607;-63
2022/07/03 06:19:22;;;;;;;3.40;1.30;;;;;;;32.68;39.93;100262.20;1648399;84;21083;-63
2022/07/03 06:21:48;;;;;;;2.02;0.88;;;;;;;32.73;39.74;100257.55;1652664;86;21163;-63
2022/07/03 06:24:15;;;;;;;2.17;1.05;;;;;;;32.79;39.54;100255.89;1665636;83;21057;-63
2022/07/03 06:26:42;;;;;;;3.72;1.07;;;;;;;32.79;39.32;100258.59;1689602;84;21140;-62
2022/07/03 06:29:09;;;;;;;2.33;0.70;;;;;;;32.59;38.46;100256.67;1676390;83;21067;-61
2022/07/03 06:31:37;;;;;;;2.10;0.95;;;;;;;31.97;38.26;100257.11;1666506;84;21124;-59
2022/07/03 06:34:04;;;;;;;2.40;1.05;;;;;;;31.68;38.40;100259.51;1692608;83;22331;-62
2022/07/03 06:36:31;;;;;;;2.55;0.80;;;;;;;31.70;38.33;100262.82;1697902;82;20928;-61
2022/07/03 06:38:57;;;;;;;2.60;0.80;;;;;;;31.76;38.42;100262.05;1673727;83;21172;-61
2022/07/03 06:41:24;;;;;;;2.37;0.72;;;;;;;31.83;38.25;100264.79;1681113;83;21057;-61
2022/07/03 06:43:51;;;;;;;1.60;0.90;;;;;;;32.11;38.18;100260.72;1682044;83;21060;-60
2022/07/03 06:46:18;;;;;;;2.17;0.98;;;;;;;32.36;38.19;100256.98;1682028;83;21027;-62
2022/07/03 06:48:45;;;;;;;1.35;0.90;;;;;;;32.44;37.74;100258.69;1693910;83;21085;-61
2022/07/03 06:51:11;;;;;;;1.77;0.80;;;;;;;31.82;36.68;100261.78;1688104;83;21492;-62
2022/07/03 06:53:38;;;;;;;2.17;0.80;;;;;;;31.15;36.75;100259.05;1685493;83;21117;-62
2022/07/03 06:56:05;;;;;;;1.47;0.60;;;;;;;31.28;36.95;100251.05;1682290;83;21062;-61
2022/07/03 06:58:32;;;;;;;2.35;1.00;;;;;;;31.24;36.68;100247.09;1689854;83;21035;-61
2022/07/03 07:00:59;;;;;;;3.15;0.90;;;;;;;31.24;36.63;100252.48;1688921;83;21068;-61
2022/07/03 07:03:25;;;;;;;2.92;0.90;;;;;;;31.36;37.02;100250.95;1689977;83;21066;-62
2022/07/03 07:05:52;;;;;;;2.87;0.90;;;;;;;31.57;36.92;100257.35;1689296;83;21018;-63
2022/07/03 07:08:19;;;;;;;2.87;0.98;;;;;;;31.54;36.73;100255.05;1689562;83;21729;-62
2022/07/03 07:10:45;;;;;;;1.70;0.70;;;;;;;31.46;36.65;100251.14;1690462;83;21626;-62
2022/07/03 07:13:12;;;;;;;3.12;1.00;;;;;;;31.52;36.39;100249.00;1690206;83;21580;-63
2022/07/03 07:15:39;;;;;;;2.72;1.22;;;;;;;31.41;36.33;100248.50;1692367;83;21620;-62
2022/07/03 07:18:06;;;;;;;2.05;0.60;;;;;;;31.19;36.37;100241.44;1688005;83;21011;-62
2022/07/03 07:20:33;;;;;;;1.37;0.70;;;;;;;31.17;36.05;100240.79;1687731;83;21030;-63
2022/07/03 07:22:59;;;;;;;3.47;0.70;;;;;;;31.06;35.88;100245.36;1690232;83;21002;-62
2022/07/03 07:25:27;;;;;;;2.70;0.82;;;;;;;30.83;35.54;100248.25;1688668;83;21112;-62
2022/07/03 07:27:53;;;;;;;8.25;1.07;;;;;;;30.57;35.75;100246.91;1690443;83;21864;-62
2022/07/03 07:30:20;;;;;;;1.27;0.57;;;;;;;30.34;35.64;100245.72;1689123;83;21532;-62
2022/07/03 07:32:47;;;;;;;2.25;0.60;;;;;;;29.94;35.16;100254.59;1691045;83;21069;-63
2022/07/03 07:35:18;;;;;;;3.65;0.70;;;;;;;29.58;34.88;100251.23;1692299;83;21145;-62
2022/07/03 07:37:45;;;;;;;3.60;0.68;;;;;;;29.01;35.17;100246.30;1688248;83;22421;-63
2022/07/03 07:40:12;;;;;;;1.00;0.42;;;;;;;28.40;34.96;100245.31;1691980;83;21000;-62
2022/07/03 07:42:39;;;;;;;0.80;0.40;;;;;;;27.88;35.07;100242.16;1689339;83;21342;-61
2022/07/03 07:45:08;;;;;;;1.82;0.90;;;;;;;27.64;35.37;100249.75;1689424;83;21568;-62
2022/07/03 07:47:35;;;;;;;1.35;0.70;;;;;;;27.48;35.54;100247.59;1687519;83;21067;-61
2022/07/03 07:50:03;;;;;;;0.95;0.70;;;;;;;27.30;35.17;100251.27;1690929;83;22311;-62
2022/07/03 07:52:30;;;;;;;2.65;0.95;;;;;;;26.85;35.45;100246.36;1688344;83;21031;-62
2022/07/03 07:54:57;;;;;;;1.25;0.75;;;;;;;26.51;35.68;100254.81;1688759;83;21009;-62
2022/07/03 07:57:45;;;;;;;;;;;;;;;26.29;35.59;100243.33;1688918;83;21785;-62
2022/07/03 08:00:14;;;;;;;;;;;;;;;25.76;35.24;100242.53;1638790;86;20294;-61
2022/07/03 08:05:36;;;;;;;;;;;;;;;25.15;35.52;100249.63;1635990;86;21099;-62
2022/07/03 08:08:09;;;;;;;;;;;;;;;24.93;35.55;100247.39;1629702;86;20250;-62
2022/07/03 08:10:38;;;;;;;;;;;;;;;24.83;35.84;100243.95;1627676;85;20500;-62
2022/07/03 08:13:05;;;;;;;;;;;;;;;24.92;36.34;100244.36;1628965;86;20221;-61
2022/07/03 08:15:32;;;;;;;;;;;;;;;25.05;36.83;100240.81;1630768;86;20522;-62
2022/07/03 08:17:59;;;;;;;;;;;;;;;25.20;36.86;100243.30;1629568;86;39325;-62
2022/07/03 08:20:26;;;;;;;;;;;;;;;25.23;37.26;100232.33;1639250;86;20198;-61
2022/07/03 08:22:53;;;;;;;;;;;;;;;25.31;37.64;100232.03;1632659;86;20191;-61
2022/07/03 08:25:20;;;;;;;;;;;;;;;25.14;37.10;100236.38;1624063;86;20516;-62
2022/07/03 08:27:46;;;;;;;;;;;;;;;24.89;37.36;100232.64;1625860;85;20739;-62
2022/07/03 08:30:16;;;;;;;;;;;;;;;24.91;37.68;100229.33;1635773;86;21069;-63
2022/07/03 08:32:42;;;;;;;;;;;;;;;24.85;37.35;100229.95;1595497;88;20279;-61
2022/07/03 08:35:09;;;;;;;;;;;;;;;24.70;38.07;100225.14;1630492;83;20548;-61
2022/07/03 08:37:36;;;;;;;;;;;;;;;24.63;38.32;100220.05;1682464;83;20163;-61
2022/07/03 08:40:04;;;;;;;;;;;;;;;24.52;38.50;100220.27;1680043;83;20521;-61
2022/07/03 08:42:31;;;;;;;;;;;;;;;24.56;38.55;100224.30;1682867;84;20949;-61
2022/07/03 08:44:58;;;;;;;;;;;;;;;24.71;38.89;100221.97;1684529;84;20861;-61
2022/07/03 08:47:27;;;;;;;;;;;;;;;24.79;39.32;100220.22;1684445;84;20210;-61
2022/07/03 08:49:54;;;;;;;;;;;;;;;24.99;39.55;100221.39;1684536;84;20247;-61
2022/07/03 08:52:23;;;;;;;;;;;;;;;25.14;39.90;100215.87;1688284;84;20146;-61
2022/07/03 08:54:50;;;;;;;;;;;;;;;25.37;40.05;100220.72;1686495;83;22678;-61
2022/07/03 08:57:17;;;;;;;;;;;;;;;25.21;39.86;100223.63;1684664;84;20122;-61
2022/07/03 08:59:46;;;;;;;;;;;;;;;24.95;39.46;100219.50;1687718;84;20224;-61
2022/07/03 09:02:13;;;;;;;;;;;;;;;24.72;39.64;100221.80;1682270;84;20659;-62
2022/07/03 09:04:39;;;;;;;;;;;;;;;24.94;40.67;100217.84;1681263;84;20168;-61
2022/07/03 09:07:08;;;;;;;;;;;;;;;25.27;40.37;100219.99;1684797;84;21023;-61
2022/07/03 09:09:34;;;;;;;;;;;;;;;25.41;40.66;100211.41;1689438;83;20161;-61
2022/07/03 09:12:01;;;;;;;;;;;;;;;25.60;40.92;100213.87;1688023;84;20150;-61
2022/07/03 09:14:28;;;;;;;;;;;;;;;25.75;40.57;100208.77;1686420;84;20146;-61
2022/07/03 09:16:54;;;;;;;;;;;;;;;25.74;40.67;100212.92;1684605;84;20177;-61
2022/07/03 09:19:43;;;;;;;;;;;;;;;25.60;40.77;100213.02;1686349;84;21515;-62
2022/07/03 09:22:22;;;;;;;;;;;;;;;25.50;40.49;100207.78;1684187;84;20200;-61
2022/07/03 09:24:49;;;;;;;;;;;;;;;25.31;40.36;100205.31;1683846;84;20507;-61
2022/07/03 09:27:18;;;;;;;;;;;;;;;25.28;40.63;100202.95;1689801;83;20723;-61
2022/07/03 09:30:09;;;;;;;;;;;;;;;25.15;40.57;100198.86;1690606;82;20162;-61
2022/07/03 09:32:42;;;;;;;;;;;;;;;24.86;40.68;100196.89;1696404;84;21110;-61
2022/07/03 09:35:23;;;;;;;;;;;;;;;24.76;40.86;100197.83;1679666;84;20169;-61
2022/07/03 09:38:01;;;;;;;;;;;;;;;24.60;40.80;100192.32;1682430;84;20210;-63
2022/07/03 09:40:49;;;;;;;;;;;;;;;24.68;41.23;100187.56;1660477;84;20142;-61
2022/07/03 09:43:16;;;;;;;;;;;;;;;24.91;41.50;100191.94;1681028;84;20122;-60
2022/07/03 09:45:51;;;;;;;;;;;;;;;24.92;41.38;100192.27;1665691;84;21910;-61
2022/07/03 09:48:32;;;;;;;;;;;;;;;24.98;41.33;100194.32;1682215;83;20447;-61
2022/07/03 09:51:13;;;;;;;;;;;;;;;24.95;41.59;100189.29;1679023;84;20501;-60
2022/07/03 09:53:58;;;;;;;;;;;;;;;25.01;41.88;100191.34;1655606;85;20149;-61
2022/07/03 09:56:29;;;;;;;;;;;;;;;25.28;41.95;100181.57;1693468;83;20131;-61
2022/07/03 09:59:07;;;;;;;;;;;;;;;25.18;41.11;100181.18;1679374;83;20936;-61
2022/07/03 10:01:36;;;;;;;;;;;;;;;25.13;42.09;100174.09;1699560;84;20170;-61
2022/07/03 10:04:18;;;;;;;;;;;;;;;25.26;41.84;100167.02;1666344;84;20153;-61
2022/07/03 10:06:55;;;;;;;;;;;;;;;25.30;42.05;100175.58;1611477;88;20345;-61
2022/07/03 10:09:24;;;;;;;;;;;;;;;25.40;42.18;100166.94;1603744;88;20168;-60
2022/07/03 10:11:51;;;;;;;;;;;;;;;25.45;41.50;100162.80;1602190;88;21383;-61
2022/07/03 10:14:20;;;;;;;;;;;;;;;25.17;41.39;100162.11;1601323;87;20205;-60
2022/07/03 10:16:48;;;;;;;;;;;;;;;25.11;41.82;100162.71;1596444;87;20204;-61
2022/07/03 10:19:22;;;;;;;;;;;;;;;25.30;42.01;100164.39;1594180;88;20252;-60
2022/07/03 10:21:52;;;;;;;;;;;;;;;25.43;41.58;100161.28;1603072;87;20217;-61
2022/07/03 10:24:22;;;;;;;;;;;;;;;25.57;41.69;100167.41;1595487;87;21105;-61
2022/07/03 10:26:50;;;;;;;;;;;;;;;25.61;41.77;100156.72;1605027;88;20250;-61
2022/07/03 10:29:16;;;;;;;;;;;;;;;25.58;41.55;100151.69;1605880;87;20181;-62
2022/07/03 10:31:45;;;;;;;;;;;;;;;25.65;41.92;100151.88;1607773;88;20267;-61
2022/07/03 10:34:12;;;;;;;;;;;;;;;25.79;42.04;100151.78;1604457;88;20167;-62
2022/07/03 10:36:39;;;;;;;;;;;;;;;25.73;41.42;100149.25;1609840;88;21003;-61
2022/07/03 10:39:06;;;;;;;;;;;;;;;25.52;41.27;100152.33;1610110;88;20199;-62
2022/07/03 10:47:28;;;;;;;;;;;;;;;25.67;41.32;100140.03;1684349;84;20534;-62
2022/07/03 10:50:02;;;;;;;;;;;;;;;25.90;41.43;100134.13;1622608;86;21534;-62
2022/07/03 10:52:29;;;;;;;;;;;;;;;26.05;41.40;100133.87;1620349;87;20197;-62
2022/07/03 10:54:57;;;;;;;;;;;;;;;26.23;41.40;100123.54;1622287;87;20160;-62
2022/07/03 10:57:23;;;;;;;;;;;;;;;26.29;41.22;100128.23;1624334;87;20244;-62
2022/07/03 10:59:53;;;;;;;;;;;;;;;26.26;41.49;100125.88;1624260;87;20576;-62
2022/07/03 11:02:38;;;;;;;;;;;;;;;26.31;41.07;100128.91;1623291;87;21010;-62
2022/07/03 11:05:07;;;;;;;;;;;;;;;26.27;41.14;100127.55;1621824;87;20224;-61
2022/07/03 11:07:46;;;;;;;;;;;;;;;25.97;40.40;100132.50;1625081;86;20193;-62
2022/07/03 11:10:20;;;;;;;;;;;;;;;25.75;40.36;100132.55;1623670;86;20290;-61
2022/07/03 11:13:00;;;;;;;;;;;;;;;25.68;40.83;100128.35;1624924;86;20201;-62
2022/07/03 11:15:35;;;;;;;;;;;;;;;25.82;40.38;100124.70;1622862;87;21417;-61
2022/07/03 11:18:17;;;;;;;;;;;;;;;25.71;40.18;100126.33;1621877;86;20376;-63
2022/07/03 11:20:46;;;;;;;;;;;;;;;25.74;40.14;100131.36;1624206;86;20253;-63
2022/07/03 11:23:19;;;;;;;;;;;;;;;25.66;38.61;100122.31;1624453;85;20621;-61
2022/07/03 11:25:50;;;;;;;;;;;;;;;25.42;39.01;100118.17;1682863;83;20166;-62
2022/07/03 11:28:36;;;;;;;;;;;;;;;25.01;38.74;100117.88;1683191;84;21500;-62
2022/07/03 11:31:15;;;;;;;;;;;;;;;24.93;39.46;100113.84;1685013;84;20726;-61
2022/07/03 11:33:57;;;;;;;;;;;;;;;25.34;39.83;100110.11;1683780;84;20880;-62
2022/07/03 11:36:26;;;;;;;;;;;;;;;25.63;39.99;100106.59;1681502;84;20195;-61
2022/07/03 11:38:59;;;;;;;;;;;;;;;25.90;40.37;100108.22;1681281;84;20516;-62
2022/07/03 11:41:56;;;;;;;;;;;;;;;26.01;39.94;100104.41;1685420;84;22406;-62
2022/07/03 11:44:23;;;;;;;;;;;;;;;26.05;39.96;100103.09;1602812;88;20807;-61
2022/07/03 11:46:51;;;;;;;;;;;;;;;26.18;40.20;100104.45;1611044;87;20205;-61
2022/07/03 11:49:19;;;;;;;;;;;;;;;26.17;39.81;100098.78;1611199;88;20979;-61
2022/07/03 11:52:03;;;;;;;;;;;;;;;26.02;40.06;100094.06;1607143;88;20559;-61
2022/07/03 11:54:32;;;;;;;;;;;;;;;26.15;40.32;100094.08;1608991;88;22375;-61
2022/07/03 11:57:00;;;;;;;;;;;;;;;26.33;40.36;100092.12;1613670;88;20686;-61
2022/07/03 11:59:27;;;;;;;;;;;;;;;26.42;40.24;100085.76;1605869;88;20170;-62
2022/07/03 12:01:57;;;;;;;;;;;;;;;26.40;39.92;100085.08;1611487;87;20228;-61
2022/07/03 12:04:24;;;;;;;;;;;;;;;26.31;39.99;100076.71;1611130;88;20540;-61
2022/07/03 12:06:52;;;;;;;;;;;;;;;26.35;40.48;100079.38;1610470;88;22257;-62
2022/07/03 12:09:30;;;;;;;;;;;;;;;26.45;40.17;100074.71;1604309;88;20238;-62
2022/07/03 12:12:05;;;;;;;;;;;;;;;26.51;40.15;100074.07;1602692;87;20312;-61
2022/07/03 12:14:52;;;;;;;;;;;;;;;26.49;39.96;100065.33;1576741;89;20279;-62
2022/07/03 12:17:24;;;;;;;;;;;;;;;26.31;39.82;100071.36;1604746;88;20531;-63